Time;durP1;ratioP1;P1;durP2;ratioP2;P2;SDS_P1;SDS_P2;PMS_P1;PMS_P2;Temp;Humidity;BMP_temperature;BMP_pressure;BME280_temperature;BME280_humidity;BME280_pressure;Samples;Min_cycle;Max_cycle;Signal;HPM_P1;HPM_P2
2022/03/13 00:01:01;;;;;;;13.98;7.80;;;8.70;29.70;;;;;;5120636;28;20059;-65
2022/03/13 00:03:28;;;;;;;15.57;8.23;;;8.70;29.60;;;;;;5120501;28;20047;-67
2022/03/13 00:05:54;;;;;;;15.73;7.68;;;8.70;29.60;;;;;;5120562;28;20011;-66
2022/03/13 00:08:26;;;;;;;12.93;7.10;;;8.60;29.70;;;;;;5120587;28;20226;-67
2022/03/13 00:10:56;;;;;;;13.10;7.25;;;8.70;29.80;;;;;;5119238;28;20038;-65
2022/03/13 00:13:24;;;;;;;13.18;7.60;;;8.60;29.80;;;;;;5120420;28;20065;-67
2022/03/13 00:15:52;;;;;;;14.65;8.25;;;8.60;29.70;;;;;;5120386;28;20079;-66
2022/03/13 00:18:19;;;;;;;17.02;8.32;;;8.60;29.70;;;;;;5120456;28;20091;-67
2022/03/13 00:20:44;;;;;;;13.70;7.78;;;8.60;29.70;;;;;;5120332;28;20066;-66
2022/03/13 00:23:12;;;;;;;13.63;7.63;;;8.60;29.60;;;;;;5120326;28;20011;-67
2022/03/13 00:25:39;;;;;;;11.10;6.60;;;8.60;29.60;;;;;;5120341;28;20296;-67
2022/03/13 00:28:05;;;;;;;13.68;7.22;;;8.60;29.70;;;;;;5120307;28;20090;-67
2022/03/13 00:30:31;;;;;;;12.65;7.82;;;8.60;29.70;;;;;;5119066;28;20065;-67
2022/03/13 00:33:00;;;;;;;12.68;7.15;;;8.60;29.80;;;;;;5120262;28;20052;-67
2022/03/13 00:35:26;;;;;;;14.00;7.68;;;8.60;29.80;;;;;;5120293;28;20016;-66
2022/03/13 00:37:52;;;;;;;12.00;6.78;;;8.60;29.80;;;;;;5120251;28;20051;-67
2022/03/13 00:40:18;;;;;;;13.52;7.38;;;8.60;29.80;;;;;;5120196;28;20320;-66
2022/03/13 00:42:44;;;;;;;12.40;7.07;;;8.60;29.90;;;;;;5119928;28;20077;-66
2022/03/13 00:45:10;;;;;;;10.57;6.25;;;8.60;29.90;;;;;;5120192;28;20024;-66
2022/03/13 00:47:35;;;;;;;12.60;7.28;;;8.60;29.90;;;;;;5120121;28;20240;-67
2022/03/13 00:50:01;;;;;;;11.52;6.90;;;8.60;29.80;;;;;;5120154;28;20342;-66
2022/03/13 00:52:27;;;;;;;11.27;6.82;;;8.60;29.80;;;;;;5124085;28;20270;-67
2022/03/13 00:54:52;;;;;;;11.40;6.47;;;8.60;29.80;;;;;;5124106;28;20413;-66
2022/03/13 00:57:19;;;;;;;13.75;7.05;;;8.60;29.80;;;;;;5124025;28;20015;-67
2022/03/13 00:59:45;;;;;;;15.02;7.45;;;8.50;29.80;;;;;;5124086;28;20053;-66
2022/03/13 01:02:12;;;;;;;10.77;6.70;;;8.50;29.80;;;;;;5123986;28;20111;-66
2022/03/13 01:04:38;;;;;;;14.65;7.30;;;8.50;29.80;;;;;;5123955;28;20350;-68
2022/03/13 01:07:04;;;;;;;12.57;7.25;;;8.50;29.80;;;;;;5124153;28;20027;-67
2022/03/13 01:09:29;;;;;;;12.25;7.20;;;8.50;29.80;;;;;;5123869;28;20024;-66
2022/03/13 01:11:55;;;;;;;12.43;6.93;;;8.50;29.80;;;;;;5123984;28;20060;-66
2022/03/13 01:14:23;;;;;;;12.35;6.85;;;8.50;29.90;;;;;;5123781;28;20059;-66
2022/03/13 01:17:02;;;;;;;12.73;6.63;;;8.50;29.90;;;;;;5123880;28;20033;-66
2022/03/13 01:19:28;;;;;;;;;;;8.40;30.00;;;;;;5124167;28;20031;-67
2022/03/13 01:21:53;;;;;;;12.05;6.95;;;8.50;30.00;;;;;;5123568;28;19964;-65
2022/03/13 01:24:25;;;;;;;11.65;6.78;;;8.40;30.00;;;;;;5123571;28;20328;-65
2022/03/13 01:27:01;;;;;;;12.15;6.55;;;8.40;29.90;;;;;;5123612;28;20024;-67
2022/03/13 01:29:31;;;;;;;14.38;6.07;;;8.50;29.90;;;;;;5123472;28;20043;-67
2022/03/13 01:31:57;;;;;;;10.38;6.30;;;8.50;30.00;;;;;;5123392;28;20027;-67
2022/03/13 01:34:32;;;;;;;10.57;6.13;;;8.40;30.10;;;;;;5123416;28;20035;-66
2022/03/13 01:36:58;;;;;;;11.98;7.18;;;8.40;30.00;;;;;;5123295;28;20406;-67
2022/03/13 01:39:24;;;;;;;11.63;5.97;;;8.40;29.90;;;;;;5123292;28;20124;-66
2022/03/13 01:41:50;;;;;;;13.23;6.65;;;8.50;29.90;;;;;;5123132;28;20023;-67
2022/03/13 01:44:19;;;;;;;10.82;6.07;;;8.40;29.90;;;;;;5123060;28;20059;-65
2022/03/13 01:46:45;;;;;;;9.07;6.15;;;8.40;30.00;;;;;;5123163;27;20027;-67
2022/03/13 01:49:10;;;;;;;9.75;6.15;;;8.40;30.00;;;;;;5123189;28;20092;-66
2022/03/13 01:51:38;;;;;;;11.15;6.28;;;8.40;30.50;;;;;;5123084;27;20031;-66
2022/03/13 01:54:08;;;;;;;10.65;5.78;;;8.40;30.00;;;;;;5123097;28;20019;-67
2022/03/13 01:56:35;;;;;;;10.98;6.25;;;8.40;30.00;;;;;;5123023;28;20033;-67
2022/03/13 01:59:01;;;;;;;11.18;5.60;;;8.40;30.10;;;;;;5123012;28;20335;-67
2022/03/13 02:01:28;;;;;;;10.10;6.60;;;8.40;30.00;;;;;;5122373;28;20031;-67
2022/03/13 02:03:54;;;;;;;10.68;6.68;;;8.40;30.00;;;;;;5122095;28;20038;-68
2022/03/13 02:06:21;;;;;;;11.05;6.22;;;8.40;30.00;;;;;;5122756;28;20034;-67
2022/03/13 02:08:47;;;;;;;10.40;6.20;;;8.40;30.00;;;;;;5122709;28;20023;-67
2022/03/13 02:11:21;;;;;;;10.13;6.20;;;8.40;30.00;;;;;;5121454;28;20215;-66
2022/03/13 02:13:49;;;;;;;10.07;5.88;;;8.40;30.00;;;;;;5121435;28;20049;-67
2022/03/13 02:16:17;;;;;;;11.10;6.75;;;8.30;30.00;;;;;;5122631;28;20012;-67
2022/03/13 02:18:50;;;;;;;10.55;5.88;;;8.30;30.10;;;;;;5122533;28;20034;-66
2022/03/13 02:21:17;;;;;;;10.60;5.90;;;8.30;30.00;;;;;;5122470;28;20347;-67
2022/03/13 02:23:43;;;;;;;11.13;6.03;;;8.30;30.00;;;;;;5122361;28;20440;-66
2022/03/13 02:26:09;;;;;;;10.20;5.68;;;8.30;30.00;;;;;;5122436;28;20034;-66
2022/03/13 02:28:51;;;;;;;9.35;5.60;;;8.30;30.00;;;;;;5122353;28;20023;-66
2022/03/13 02:31:23;;;;;;;8.40;5.25;;;8.30;30.10;;;;;;5122384;28;20020;-67
2022/03/13 02:33:52;;;;;;;9.93;5.68;;;8.30;30.10;;;;;;5122344;28;20034;-67
2022/03/13 02:36:34;;;;;;;9.45;5.28;;;8.30;30.10;;;;;;5122311;28;20019;-66
2022/03/13 02:39:04;;;;;;;12.00;5.78;;;8.30;30.00;;;;;;5122289;28;20223;-66
2022/03/13 02:41:29;;;;;;;9.63;5.80;;;8.30;30.10;;;;;;5122393;28;20320;-65
2022/03/13 02:43:57;;;;;;;10.43;5.15;;;8.30;30.00;;;;;;5122013;28;20115;-67
2022/03/13 02:46:42;;;;;;;9.95;6.13;;;8.30;30.00;;;;;;5122093;28;20070;-66
2022/03/13 02:49:08;;;;;;;12.52;6.15;;;8.30;30.20;;;;;;5122019;28;20023;-67
2022/03/13 02:51:34;;;;;;;11.93;6.28;;;8.30;30.10;;;;;;5122016;28;20421;-65
2022/03/13 02:53:59;;;;;;;11.48;6.05;;;8.30;30.00;;;;;;5121576;28;20100;-67
2022/03/13 02:56:25;;;;;;;12.07;6.15;;;8.30;30.10;;;;;;5121889;28;20015;-67
2022/03/13 02:58:51;;;;;;;8.90;5.93;;;8.30;30.00;;;;;;5121821;28;20030;-66
2022/03/13 03:01:18;;;;;;;9.57;5.30;;;8.30;30.20;;;;;;5121862;28;20035;-66
2022/03/13 03:03:43;;;;;;;10.93;5.95;;;8.30;30.00;;;;;;5121794;28;20015;-67
2022/03/13 03:06:12;;;;;;;11.02;5.95;;;8.20;30.10;;;;;;5121719;28;20031;-66
2022/03/13 03:08:38;;;;;;;9.45;5.63;;;8.30;30.20;;;;;;5121709;28;20079;-65
2022/03/13 03:11:03;;;;;;;10.23;5.25;;;8.30;30.10;;;;;;5120399;28;20047;-66
2022/03/13 03:13:29;;;;;;;9.00;5.57;;;8.30;30.00;;;;;;5121188;27;20032;-66
2022/03/13 03:15:55;;;;;;;11.20;5.15;;;8.20;30.00;;;;;;5121554;28;20022;-67
2022/03/13 03:18:20;;;;;;;9.43;5.63;;;8.20;30.00;;;;;;5121508;28;20038;-66
2022/03/13 03:20:46;;;;;;;11.60;5.70;;;8.20;30.00;;;;;;5121473;28;20031;-65
2022/03/13 03:23:12;;;;;;;11.10;6.13;;;8.20;30.10;;;;;;5120071;28;20027;-68
2022/03/13 03:25:38;;;;;;;11.52;5.50;;;8.20;30.10;;;;;;5121423;28;20034;-67
2022/03/13 03:28:04;;;;;;;10.95;5.32;;;8.20;30.20;;;;;;5121367;28;20015;-66
2022/03/13 03:30:30;;;;;;;10.95;5.45;;;8.20;30.20;;;;;;5121290;27;20034;-66
2022/03/13 03:33:00;;;;;;;12.35;5.95;;;8.20;30.20;;;;;;5120012;28;20073;-66
2022/03/13 03:35:26;;;;;;;11.57;5.72;;;8.20;30.20;;;;;;5121260;28;20031;-66
2022/03/13 03:37:53;;;;;;;10.02;5.50;;;8.20;30.10;;;;;;5121211;28;20050;-68
2022/03/13 03:40:25;;;;;;;11.05;5.72;;;8.20;30.40;;;;;;5121191;28;20024;-66
2022/03/13 03:42:51;;;;;;;8.20;5.30;;;8.10;30.30;;;;;;5120948;28;20036;-66
2022/03/13 03:45:17;;;;;;;7.85;5.10;;;8.20;30.30;;;;;;5121062;28;20061;-65
2022/03/13 03:47:45;;;;;;;10.18;5.50;;;8.20;30.40;;;;;;5121091;28;20346;-67
2022/03/13 03:50:12;;;;;;;9.98;5.15;;;8.20;30.40;;;;;;5121077;28;20077;-67
2022/03/13 03:52:37;;;;;;;8.70;4.88;;;8.20;30.40;;;;;;5121014;28;20250;-66
2022/03/13 03:55:03;;;;;;;9.05;5.22;;;8.20;30.20;;;;;;5120970;28;20063;-66
2022/03/13 03:57:29;;;;;;;8.23;5.38;;;8.10;30.30;;;;;;5120922;28;20343;-66
2022/03/13 03:59:55;;;;;;;10.15;5.85;;;8.10;30.30;;;;;;5120838;28;20027;-66
2022/03/13 04:02:21;;;;;;;9.43;5.38;;;8.10;30.10;;;;;;5120770;28;20350;-67
2022/03/13 04:04:47;;;;;;;8.38;5.15;;;8.10;30.00;;;;;;5120859;28;20019;-67
2022/03/13 04:07:13;;;;;;;9.15;5.47;;;8.10;30.10;;;;;;5120805;28;20023;-68
2022/03/13 04:09:40;;;;;;;8.55;5.22;;;8.10;30.10;;;;;;5120732;28;20019;-67
2022/03/13 04:12:07;;;;;;;9.48;5.57;;;8.10;30.10;;;;;;5120756;28;20019;-67
2022/03/13 04:14:36;;;;;;;10.02;5.18;;;8.10;30.90;;;;;;5120660;28;20038;-66
2022/03/13 04:17:03;;;;;;;9.60;5.10;;;8.10;30.20;;;;;;5119507;28;20189;-66
2022/03/13 04:19:29;;;;;;;7.82;4.57;;;8.00;30.40;;;;;;5120686;28;20037;-66
2022/03/13 04:21:56;;;;;;;9.80;5.68;;;8.10;30.50;;;;;;5120567;28;20088;-65
2022/03/13 04:24:22;;;;;;;8.73;5.15;;;8.00;30.40;;;;;;5120644;28;20043;-65
2022/03/13 04:26:49;;;;;;;7.28;5.00;;;8.00;30.30;;;;;;5123741;28;20040;-66
2022/03/13 04:29:16;;;;;;;8.77;4.82;;;8.00;30.20;;;;;;5124830;28;20050;-66
2022/03/13 04:31:43;;;;;;;7.90;5.15;;;8.00;30.20;;;;;;5124877;28;20034;-66
2022/03/13 04:34:09;;;;;;;7.55;5.45;;;8.00;30.40;;;;;;5124790;28;20034;-66
2022/03/13 04:36:37;;;;;;;9.13;5.28;;;8.00;30.30;;;;;;5124763;28;20061;-66
2022/03/13 04:39:04;;;;;;;9.30;4.90;;;8.00;30.30;;;;;;5124738;28;20118;-68
2022/03/13 04:41:30;;;;;;;10.80;5.72;;;8.00;30.40;;;;;;5124606;28;20031;-68
2022/03/13 04:43:56;;;;;;;8.75;5.50;;;8.00;30.50;;;;;;5124483;28;20237;-67
2022/03/13 04:46:22;;;;;;;8.48;4.97;;;8.00;30.60;;;;;;5124512;28;20029;-66
2022/03/13 04:48:49;;;;;;;9.88;5.13;;;8.00;30.50;;;;;;5124532;28;20034;-67
2022/03/13 04:51:15;;;;;;;7.72;4.13;;;7.90;30.40;;;;;;5124457;28;20091;-67
2022/03/13 04:53:41;;;;;;;8.80;5.03;;;8.00;30.20;;;;;;5124481;28;20024;-66
2022/03/13 04:56:07;;;;;;;8.50;5.05;;;8.00;30.30;;;;;;5124381;28;20087;-68
2022/03/13 04:58:33;;;;;;;6.20;4.82;;;8.00;30.40;;;;;;5124310;28;20051;-67
2022/03/13 05:00:59;;;;;;;8.98;4.35;;;8.00;30.30;;;;;;5124215;28;20023;-66
2022/03/13 05:03:27;;;;;;;7.60;4.50;;;8.00;30.30;;;;;;5122892;28;20072;-67
2022/03/13 05:05:53;;;;;;;8.15;4.88;;;8.00;30.00;;;;;;5124177;28;20065;-65
2022/03/13 05:08:20;;;;;;;9.52;5.30;;;8.00;30.10;;;;;;5124138;28;20016;-66
2022/03/13 05:10:47;;;;;;;7.72;4.72;;;8.00;30.10;;;;;;5124098;28;20018;-67
2022/03/13 05:13:15;;;;;;;9.57;4.82;;;8.00;30.20;;;;;;5124060;27;20023;-66
2022/03/13 05:15:42;;;;;;;7.30;4.90;;;8.00;30.10;;;;;;5124010;28;20020;-66
2022/03/13 05:18:09;;;;;;;11.57;5.78;;;8.00;30.30;;;;;;5123961;28;20110;-66
2022/03/13 05:20:35;;;;;;;8.27;5.43;;;7.90;30.30;;;;;;5123860;28;20087;-66
2022/03/13 05:23:05;;;;;;;9.48;5.50;;;8.00;30.50;;;;;;5123813;28;20335;-67
2022/03/13 05:25:32;;;;;;;9.73;5.18;;;7.90;30.40;;;;;;5123816;28;20238;-67
2022/03/13 05:27:59;;;;;;;9.95;4.97;;;7.90;30.30;;;;;;5122535;28;20027;-67
2022/03/13 05:30:24;;;;;;;9.60;5.47;;;7.90;30.40;;;;;;5123762;28;20319;-66
2022/03/13 05:32:50;;;;;;;10.05;5.72;;;7.90;30.50;;;;;;5122341;28;20019;-66
2022/03/13 05:35:17;;;;;;;10.05;5.68;;;7.90;30.60;;;;;;5123648;28;20036;-66
2022/03/13 05:37:44;;;;;;;7.53;5.03;;;7.90;30.60;;;;;;5123326;28;20019;-66
2022/03/13 05:40:13;;;;;;;8.82;5.40;;;7.90;30.60;;;;;;5123565;28;20027;-66
2022/03/13 05:42:44;;;;;;;;;;;7.90;30.50;;;;;;5123668;28;20035;-67
2022/03/13 05:45:11;;;;;;;7.80;5.07;;;7.90;30.50;;;;;;5123478;28;19956;-68
2022/03/13 05:47:45;;;;;;;10.30;5.55;;;7.90;30.50;;;;;;5123329;28;20193;-67
2022/03/13 05:50:12;;;;;;;9.43;5.13;;;7.90;30.50;;;;;;5123402;28;20020;-66
2022/03/13 05:52:38;;;;;;;9.32;5.40;;;7.90;30.70;;;;;;5123279;28;20091;-66
2022/03/13 05:55:05;;;;;;;7.50;5.32;;;7.90;30.60;;;;;;5123197;28;20193;-68
2022/03/13 05:57:31;;;;;;;7.88;4.75;;;7.90;30.70;;;;;;5121916;28;20023;-68
2022/03/13 05:59:56;;;;;;;8.63;5.00;;;7.90;30.70;;;;;;5123150;28;20027;-66
2022/03/13 06:02:22;;;;;;;8.23;5.10;;;7.90;30.80;;;;;;5123011;28;20027;-67
2022/03/13 06:04:48;;;;;;;9.18;4.72;;;7.90;30.60;;;;;;5123075;28;20046;-66
2022/03/13 06:07:14;;;;;;;8.32;5.40;;;7.90;30.60;;;;;;5123044;28;20340;-66
2022/03/13 06:09:40;;;;;;;7.85;4.90;;;8.00;30.40;;;;;;5122951;28;20033;-67
2022/03/13 06:12:08;;;;;;;7.40;5.20;;;8.00;30.40;;;;;;5122875;28;20107;-66
2022/03/13 06:14:34;;;;;;;7.60;4.45;;;8.00;30.50;;;;;;5122822;28;20032;-66
2022/03/13 06:17:00;;;;;;;6.72;4.60;;;8.00;30.40;;;;;;5122804;28;20291;-67
2022/03/13 06:19:26;;;;;;;9.77;4.43;;;8.00;30.50;;;;;;5122561;28;20027;-66
2022/03/13 06:21:52;;;;;;;8.27;5.28;;;8.00;30.40;;;;;;5122575;28;20076;-66
2022/03/13 06:24:18;;;;;;;7.72;4.15;;;8.10;30.50;;;;;;5122616;28;20019;-67
2022/03/13 06:26:44;;;;;;;8.88;4.95;;;8.10;30.60;;;;;;5122510;28;20008;-67
2022/03/13 06:29:13;;;;;;;8.15;4.90;;;8.10;30.60;;;;;;5122520;28;20269;-67
2022/03/13 06:31:40;;;;;;;7.70;4.47;;;8.10;30.50;;;;;;5122438;28;20082;-65
2022/03/13 06:34:05;;;;;;;8.05;4.45;;;8.10;30.20;;;;;;5122406;28;20016;-67
2022/03/13 06:36:31;;;;;;;11.80;5.43;;;8.10;30.10;;;;;;5122360;28;20046;-65
2022/03/13 06:38:57;;;;;;;7.28;4.78;;;8.20;30.10;;;;;;5122214;28;20031;-66
2022/03/13 06:41:23;;;;;;;9.00;4.60;;;8.20;30.20;;;;;;5122263;28;20227;-67
2022/03/13 06:43:49;;;;;;;7.85;4.40;;;8.20;30.30;;;;;;5122028;28;20059;-66
2022/03/13 06:46:15;;;;;;;8.35;4.90;;;8.20;30.00;;;;;;5122037;28;20023;-66
2022/03/13 06:48:42;;;;;;;7.40;4.18;;;8.30;30.00;;;;;;5121328;28;20076;-66
2022/03/13 06:51:07;;;;;;;7.85;4.60;;;8.30;29.90;;;;;;5122016;28;20068;-66
2022/03/13 06:53:35;;;;;;;6.93;4.32;;;8.30;30.00;;;;;;5121926;28;20016;-66
2022/03/13 06:56:01;;;;;;;8.68;4.57;;;8.30;30.00;;;;;;5121990;28;20185;-66
2022/03/13 06:58:27;;;;;;;7.50;4.65;;;8.40;30.00;;;;;;5121948;28;20024;-67
2022/03/13 07:00:53;;;;;;;8.70;4.68;;;8.40;30.10;;;;;;5121844;28;20083;-66
2022/03/13 07:03:19;;;;;;;8.43;5.03;;;8.40;30.00;;;;;;5122013;27;20332;-65
2022/03/13 07:05:45;;;;;;;7.93;5.05;;;8.40;30.10;;;;;;5121752;28;20031;-66
2022/03/13 07:08:10;;;;;;;7.90;4.03;;;8.50;29.80;;;;;;5120389;28;20011;-67
2022/03/13 07:10:36;;;;;;;9.65;5.20;;;8.50;30.00;;;;;;5121675;28;20023;-66
2022/03/13 07:13:02;;;;;;;16.48;4.88;;;8.60;29.80;;;;;;5121550;28;20024;-66
2022/03/13 07:15:29;;;;;;;7.38;4.63;;;8.60;29.80;;;;;;5121459;28;20084;-66
2022/03/13 07:17:54;;;;;;;7.88;4.45;;;8.60;29.80;;;;;;5121577;28;20035;-65
2022/03/13 07:20:20;;;;;;;8.32;4.55;;;8.70;29.80;;;;;;5121378;28;20020;-66
2022/03/13 07:22:46;;;;;;;7.47;4.53;;;8.70;29.80;;;;;;5120105;28;20027;-66
2022/03/13 07:25:14;;;;;;;5.80;4.57;;;8.70;29.90;;;;;;5121343;28;20027;-66
2022/03/13 07:27:40;;;;;;;7.53;4.85;;;8.80;30.00;;;;;;5120067;28;20370;-66
2022/03/13 07:30:14;;;;;;;7.57;4.40;;;8.80;30.00;;;;;;5119978;28;20212;-66
2022/03/13 07:32:44;;;;;;;6.30;4.20;;;8.80;30.00;;;;;;5121329;27;20256;-66
2022/03/13 07:35:12;;;;;;;10.20;4.60;;;8.90;29.80;;;;;;5121212;28;20028;-66
2022/03/13 07:37:38;;;;;;;7.07;4.60;;;8.90;30.00;;;;;;5121193;28;20028;-66
2022/03/13 07:40:05;;;;;;;7.15;4.78;;;8.90;29.70;;;;;;5121119;28;20358;-67
2022/03/13 07:42:31;;;;;;;6.97;4.47;;;8.90;29.60;;;;;;5120928;28;20050;-67
2022/03/13 07:44:56;;;;;;;6.95;4.35;;;9.00;29.70;;;;;;5121023;28;20020;-67
2022/03/13 07:47:22;;;;;;;7.25;4.60;;;9.00;29.60;;;;;;5120096;28;20031;-65
2022/03/13 07:49:48;;;;;;;9.77;5.10;;;9.10;29.50;;;;;;5120948;28;20042;-66
2022/03/13 07:52:14;;;;;;;9.52;4.90;;;9.10;29.50;;;;;;5120980;28;20031;-67
2022/03/13 07:54:39;;;;;;;7.63;4.97;;;9.20;29.50;;;;;;5120847;28;20220;-65
2022/03/13 07:57:05;;;;;;;8.70;4.80;;;9.20;29.50;;;;;;5120811;28;20085;-66
2022/03/13 07:59:31;;;;;;;9.95;5.03;;;9.20;29.30;;;;;;5120881;28;20246;-66
2022/03/13 08:01:56;;;;;;;7.10;4.85;;;9.20;29.30;;;;;;5120753;28;20031;-67
2022/03/13 08:04:24;;;;;;;7.70;4.93;;;9.30;29.20;;;;;;5120796;28;20354;-65
2022/03/13 08:06:50;;;;;;;7.40;4.50;;;9.30;28.90;;;;;;5120788;28;20411;-67
2022/03/13 08:09:16;;;;;;;9.70;5.03;;;9.30;29.00;;;;;;5120730;27;20092;-66
2022/03/13 08:11:42;;;;;;;7.20;4.63;;;9.30;29.00;;;;;;5119403;28;20249;-66
2022/03/13 08:14:08;;;;;;;6.13;4.13;;;9.30;29.00;;;;;;5120700;28;20031;-67
2022/03/13 08:16:34;;;;;;;8.95;5.32;;;9.40;28.90;;;;;;5120724;28;20450;-68
2022/03/13 08:19:03;;;;;;;9.20;4.70;;;9.40;28.90;;;;;;5120591;28;20083;-66
2022/03/13 08:21:29;;;;;;;8.23;5.30;;;9.40;29.00;;;;;;5120583;28;20015;-67
2022/03/13 08:23:58;;;;;;;8.95;5.38;;;9.50;28.90;;;;;;5120605;28;20368;-66
2022/03/13 08:26:23;;;;;;;;;;;9.50;28.80;;;;;;5121062;28;20015;-67
2022/03/13 08:28:49;;;;;;;9.57;4.60;;;9.50;28.90;;;;;;5120862;28;19943;-65
2022/03/13 08:31:15;;;;;;;5.50;3.95;;;9.60;29.10;;;;;;5120474;28;20255;-66
2022/03/13 08:33:45;;;;;;;6.93;5.03;;;9.50;28.60;;;;;;5120508;28;20019;-65
2022/03/13 08:36:12;;;;;;;8.07;4.47;;;9.60;28.50;;;;;;5120488;28;20015;-66
2022/03/13 08:38:38;;;;;;;7.28;4.55;;;9.60;28.60;;;;;;5120471;28;20032;-66
2022/03/13 08:41:04;;;;;;;6.82;4.28;;;9.60;28.30;;;;;;5119262;28;20277;-67
2022/03/13 08:43:30;;;;;;;6.80;4.40;;;9.60;28.40;;;;;;5120235;28;20047;-67
2022/03/13 08:45:55;;;;;;;8.57;4.28;;;9.70;29.20;;;;;;5120347;28;20224;-67
2022/03/13 08:48:21;;;;;;;7.25;4.00;;;9.70;29.30;;;;;;5120343;28;20019;-67
2022/03/13 08:50:47;;;;;;;7.57;4.72;;;9.70;29.40;;;;;;5120357;28;20091;-67
2022/03/13 08:53:12;;;;;;;9.05;4.78;;;9.70;28.40;;;;;;5120381;28;20051;-65
2022/03/13 08:55:38;;;;;;;7.47;4.50;;;9.70;28.80;;;;;;5120365;28;20027;-66
2022/03/13 08:58:04;;;;;;;7.35;4.55;;;9.80;29.20;;;;;;5120375;28;20381;-68
2022/03/13 09:00:32;;;;;;;8.32;5.00;;;9.80;28.90;;;;;;5120286;28;20283;-66
2022/03/13 09:02:58;;;;;;;6.97;4.57;;;9.80;29.30;;;;;;5120106;28;20027;-66
2022/03/13 09:05:23;;;;;;;7.13;4.53;;;9.90;29.60;;;;;;5120209;28;20060;-66
2022/03/13 09:07:49;;;;;;;7.68;4.78;;;9.90;29.40;;;;;;5120284;28;20027;-67
2022/03/13 09:10:15;;;;;;;6.85;4.82;;;9.90;29.50;;;;;;5120205;28;20033;-66
2022/03/13 09:12:40;;;;;;;7.55;4.90;;;10.00;29.60;;;;;;5122851;28;20028;-67
2022/03/13 09:15:07;;;;;;;6.88;4.95;;;10.00;29.30;;;;;;5124012;28;20064;-65
2022/03/13 09:17:34;;;;;;;10.85;5.38;;;10.00;29.20;;;;;;5123988;28;20034;-66
2022/03/13 09:20:00;;;;;;;7.38;4.50;;;10.00;29.40;;;;;;5123941;28;20087;-67
2022/03/13 09:22:29;;;;;;;7.43;4.85;;;10.00;29.50;;;;;;5123756;28;20027;-66
2022/03/13 09:24:58;;;;;;;;;;;10.00;29.40;;;;;;5124313;28;20019;-67
2022/03/13 09:27:28;;;;;;;11.38;5.43;;;10.10;29.50;;;;;;5123802;28;19899;-67
2022/03/13 09:29:54;;;;;;;6.82;4.35;;;10.10;29.50;;;;;;5123789;28;20016;-67
2022/03/13 09:32:24;;;;;;;8.95;4.68;;;10.10;29.50;;;;;;5122408;28;20020;-65
2022/03/13 09:34:50;;;;;;;7.38;4.50;;;10.10;29.50;;;;;;5122459;28;20299;-66
2022/03/13 09:37:16;;;;;;;6.30;4.07;;;10.20;29.60;;;;;;5123596;28;20026;-65
2022/03/13 09:39:43;;;;;;;7.32;5.03;;;10.20;29.40;;;;;;5123603;28;20068;-66
2022/03/13 09:42:09;;;;;;;6.90;4.63;;;10.20;29.40;;;;;;5123297;28;20463;-67
2022/03/13 09:44:34;;;;;;;7.20;5.30;;;10.20;29.40;;;;;;5123460;28;20031;-65
2022/03/13 09:47:00;;;;;;;6.90;4.50;;;10.20;29.50;;;;;;5123410;28;20012;-66
2022/03/13 09:49:27;;;;;;;7.95;5.18;;;10.20;29.50;;;;;;5122054;28;20228;-66
2022/03/13 09:51:53;;;;;;;6.15;4.07;;;10.30;29.50;;;;;;5123378;28;20068;-66
2022/03/13 09:54:19;;;;;;;8.27;4.85;;;10.30;29.60;;;;;;5123198;28;20246;-67
2022/03/13 09:56:45;;;;;;;6.30;4.20;;;10.30;30.00;;;;;;5123257;28;20031;-66
2022/03/13 09:59:11;;;;;;;7.70;4.68;;;10.30;29.60;;;;;;5123252;27;20513;-66
2022/03/13 10:01:38;;;;;;;6.78;4.55;;;10.40;29.60;;;;;;5123112;28;20031;-67
2022/03/13 10:04:04;;;;;;;7.55;4.28;;;10.30;29.60;;;;;;5123135;28;20020;-66
2022/03/13 10:06:30;;;;;;;7.10;4.60;;;10.40;30.00;;;;;;5123129;28;20027;-67
2022/03/13 10:08:55;;;;;;;7.22;4.20;;;10.40;29.40;;;;;;5123033;28;20035;-67
2022/03/13 10:11:33;;;;;;;8.35;4.75;;;10.40;29.60;;;;;;5123020;28;20319;-65
2022/03/13 10:14:10;;;;;;;7.20;4.70;;;10.40;29.60;;;;;;5123010;28;20019;-66
2022/03/13 10:16:39;;;;;;;7.47;4.50;;;10.50;29.60;;;;;;5122903;28;20019;-66
2022/03/13 10:19:16;;;;;;;6.05;4.35;;;10.50;29.60;;;;;;5121496;28;20219;-66
2022/03/13 10:22:07;;;;;;;7.22;5.03;;;10.50;29.80;;;;;;5122688;27;20024;-66
2022/03/13 10:24:45;;;;;;;7.15;4.90;;;10.50;29.70;;;;;;5121613;28;20019;-66
2022/03/13 10:27:18;;;;;;;5.95;4.03;;;10.50;29.60;;;;;;5121384;28;20363;-66
2022/03/13 10:29:48;;;;;;;8.15;4.63;;;10.50;29.70;;;;;;5122618;28;20084;-66
2022/03/13 10:32:15;;;;;;;8.13;4.57;;;10.60;29.80;;;;;;5122571;27;20019;-66
2022/03/13 10:34:41;;;;;;;5.53;3.92;;;10.60;29.80;;;;;;5122517;28;20024;-66
2022/03/13 10:37:09;;;;;;;9.07;4.65;;;10.60;29.70;;;;;;5122459;28;20027;-67
2022/03/13 10:39:35;;;;;;;6.55;5.00;;;10.60;30.00;;;;;;5121084;28;20023;-66
2022/03/13 10:42:04;;;;;;;9.10;5.03;;;10.60;29.90;;;;;;5122058;28;20020;-66
2022/03/13 10:44:42;;;;;;;8.88;5.20;;;10.60;30.00;;;;;;5122338;28;20068;-66
2022/03/13 10:47:10;;;;;;;8.35;4.80;;;10.60;30.00;;;;;;5122119;28;20040;-66
2022/03/13 10:49:44;;;;;;;6.88;5.05;;;10.60;30.00;;;;;;5120802;28;20031;-66
2022/03/13 10:52:41;;;;;;;9.10;5.30;;;10.60;30.00;;;;;;5122144;28;20023;-66
2022/03/13 10:55:24;;;;;;;7.25;4.80;;;10.70;30.00;;;;;;5120984;28;20036;-66
2022/03/13 10:57:54;;;;;;;6.05;4.55;;;10.60;29.90;;;;;;5122094;28;20019;-65
2022/03/13 11:00:22;;;;;;;7.53;4.82;;;10.70;30.00;;;;;;5122076;28;20222;-66
2022/03/13 11:02:52;;;;;;;7.18;4.55;;;10.70;29.90;;;;;;5121883;28;20380;-66
2022/03/13 11:05:18;;;;;;;9.75;4.63;;;10.70;29.90;;;;;;5121880;28;20028;-66
2022/03/13 11:07:44;;;;;;;6.50;4.60;;;10.70;29.90;;;;;;5121789;28;20025;-66
2022/03/13 11:10:11;;;;;;;8.00;4.97;;;10.70;29.90;;;;;;5121699;28;20382;-66
2022/03/13 11:12:38;;;;;;;10.82;4.57;;;10.70;30.10;;;;;;5121751;28;20042;-65
2022/03/13 11:15:06;;;;;;;7.97;4.65;;;10.80;30.10;;;;;;5121686;28;20028;-66
2022/03/13 11:17:33;;;;;;;6.43;4.72;;;10.80;30.10;;;;;;5121624;28;20085;-66
2022/03/13 11:20:01;;;;;;;7.22;4.82;;;10.80;30.10;;;;;;5121576;28;20052;-66
2022/03/13 11:22:28;;;;;;;7.60;4.43;;;10.80;30.10;;;;;;5120095;28;20060;-66
2022/03/13 11:25:00;;;;;;;6.57;4.70;;;10.80;30.00;;;;;;5121538;28;20030;-68
2022/03/13 11:27:27;;;;;;;7.38;4.60;;;10.80;30.00;;;;;;5120081;28;20019;-66
2022/03/13 11:29:54;;;;;;;9.75;5.50;;;10.80;30.10;;;;;;5121299;28;20023;-66
2022/03/13 11:32:43;;;;;;;7.00;4.82;;;10.80;30.20;;;;;;5121329;28;20083;-67
2022/03/13 11:35:14;;;;;;;7.80;4.63;;;10.80;30.20;;;;;;5120993;28;20380;-68
2022/03/13 11:37:42;;;;;;;9.18;5.72;;;10.80;30.20;;;;;;5121226;28;20053;-67
2022/03/13 11:40:10;;;;;;;7.72;5.20;;;10.90;30.10;;;;;;5121169;28;20351;-66
2022/03/13 11:42:53;;;;;;;6.63;4.68;;;10.90;30.00;;;;;;5120860;28;20051;-66
2022/03/13 11:45:28;;;;;;;7.85;4.57;;;10.90;30.00;;;;;;5121088;28;20023;-66
2022/03/13 11:47:55;;;;;;;7.90;4.90;;;10.90;30.10;;;;;;5121144;28;20392;-66
2022/03/13 11:50:45;;;;;;;9.63;4.72;;;10.90;30.20;;;;;;5121059;28;20262;-65
2022/03/13 11:53:16;;;;;;;8.20;4.78;;;10.90;30.00;;;;;;5121025;28;20073;-66
2022/03/13 11:56:02;;;;;;;8.02;4.82;;;10.90;30.00;;;;;;5120886;28;20023;-65
2022/03/13 11:58:53;;;;;;;7.25;4.45;;;10.90;30.00;;;;;;5120901;28;20329;-67
2022/03/13 12:01:29;;;;;;;7.40;5.10;;;11.00;30.00;;;;;;5119574;28;20125;-65
2022/03/13 12:04:01;;;;;;;8.55;4.50;;;11.00;30.00;;;;;;5120839;28;20023;-66
2022/03/13 12:06:53;;;;;;;9.82;5.53;;;11.00;29.90;;;;;;5120796;28;20054;-67
2022/03/13 12:09:31;;;;;;;8.10;4.90;;;11.00;29.90;;;;;;5120798;28;20027;-68
2022/03/13 12:12:06;;;;;;;8.80;5.30;;;11.00;29.90;;;;;;5119513;28;20081;-67
2022/03/13 12:14:53;;;;;;;8.73;4.72;;;11.00;30.00;;;;;;5120703;28;20364;-67
2022/03/13 12:17:20;;;;;;;6.57;4.55;;;11.00;29.80;;;;;;5120636;28;20023;-68
2022/03/13 12:19:47;;;;;;;9.25;4.97;;;11.00;29.90;;;;;;5120664;28;20339;-68
2022/03/13 12:22:15;;;;;;;11.18;4.72;;;11.00;29.80;;;;;;5120516;28;20030;-68
2022/03/13 12:24:52;;;;;;;9.10;5.05;;;11.10;29.80;;;;;;5120622;28;20023;-68
2022/03/13 12:27:18;;;;;;;8.52;5.38;;;11.10;29.80;;;;;;5120589;28;20019;-68
2022/03/13 12:29:57;;;;;;;10.00;5.30;;;11.10;29.80;;;;;;5120478;28;20069;-68
2022/03/13 12:32:34;;;;;;;7.50;4.88;;;11.10;29.80;;;;;;5120505;28;20066;-67
2022/03/13 12:35:01;;;;;;;7.78;4.78;;;11.10;29.80;;;;;;5120469;28;20032;-66
2022/03/13 12:37:27;;;;;;;7.47;4.90;;;11.10;29.80;;;;;;5120488;28;20228;-68
2022/03/13 12:39:58;;;;;;;7.40;5.13;;;11.10;29.70;;;;;;5120426;28;20350;-68
2022/03/13 12:42:26;;;;;;;7.53;4.78;;;11.10;29.70;;;;;;5120191;28;20059;-67
2022/03/13 12:45:12;;;;;;;7.85;4.78;;;11.10;29.70;;;;;;5120410;28;20022;-66
2022/03/13 12:47:42;;;;;;;6.68;4.95;;;11.10;29.70;;;;;;5123057;28;20053;-66
2022/03/13 12:50:12;;;;;;;7.03;4.82;;;11.20;30.10;;;;;;5124443;28;20121;-66
2022/03/13 12:52:39;;;;;;;7.53;5.03;;;11.20;29.70;;;;;;5124446;28;20083;-67
2022/03/13 12:55:08;;;;;;;9.15;5.40;;;11.20;29.60;;;;;;5124395;28;20227;-66
2022/03/13 12:57:35;;;;;;;7.75;4.63;;;11.20;30.10;;;;;;5124384;28;20460;-67